createdAt,value
2023-06-26T00:02:17.993Z,21.20
2023-06-26T00:04:45.288Z,21.10
2023-06-26T00:07:12.107Z,21.10
2023-06-26T00:09:39.108Z,21.10
2023-06-26T00:12:06.424Z,21.10
2023-06-26T00:14:33.436Z,21.00
2023-06-26T00:17:00.171Z,21.00
2023-06-26T00:19:26.878Z,21.00
2023-06-26T00:21:53.692Z,21.00
2023-06-26T00:24:20.652Z,21.00
2023-06-26T00:26:48.890Z,20.90
2023-06-26T00:29:15.660Z,20.90
2023-06-26T00:31:42.729Z,20.90
2023-06-26T00:34:09.577Z,20.80
2023-06-26T00:36:36.388Z,20.80
2023-06-26T00:39:04.701Z,20.70
2023-06-26T00:41:31.458Z,20.70
2023-06-26T00:43:58.162Z,20.70
2023-06-26T00:46:25.770Z,20.60
2023-06-26T00:48:53.603Z,20.60
2023-06-26T00:51:20.414Z,20.60
2023-06-26T00:53:47.539Z,20.60
2023-06-26T00:56:15.217Z,20.60
2023-06-26T00:58:42.150Z,20.50
2023-06-26T01:01:09.882Z,20.50
2023-06-26T01:03:40.953Z,20.50
2023-06-26T01:06:12.634Z,20.40
2023-06-26T01:08:40.642Z,20.30
2023-06-26T01:11:07.707Z,20.20
2023-06-26T01:13:35.100Z,20.20
2023-06-26T01:16:03.292Z,20.10
2023-06-26T01:18:31.594Z,20.00
2023-06-26T01:21:02.062Z,20.00
2023-06-26T01:23:49.229Z,19.90
2023-06-26T01:26:25.094Z,19.90
2023-06-26T01:28:53.674Z,19.80
2023-06-26T01:31:21.674Z,19.80
2023-06-26T01:33:48.719Z,19.70
2023-06-26T01:36:15.502Z,19.70
2023-06-26T01:38:42.256Z,19.70
2023-06-26T01:41:09.062Z,19.70
2023-06-26T01:44:07.885Z,19.70
2023-06-26T01:47:05.243Z,19.70
2023-06-26T01:49:53.756Z,19.70
2023-06-26T01:52:29.876Z,19.70
2023-06-26T01:55:27.610Z,19.70
2023-06-26T01:57:57.966Z,19.70
2023-06-26T02:00:25.570Z,19.70
2023-06-26T02:02:53.387Z,19.70
2023-06-26T02:05:20.152Z,19.70
2023-06-26T02:07:47.014Z,19.60
2023-06-26T02:10:13.795Z,19.60
2023-06-26T02:12:40.911Z,19.60
2023-06-26T02:15:08.415Z,19.60
2023-06-26T02:17:35.470Z,19.60
2023-06-26T02:20:02.483Z,19.60
2023-06-26T02:22:29.729Z,19.60
2023-06-26T02:24:56.563Z,19.50
2023-06-26T02:27:23.226Z,19.50
2023-06-26T02:29:50.023Z,19.50
2023-06-26T02:32:16.725Z,19.50
2023-06-26T02:34:43.421Z,19.50
2023-06-26T02:37:11.378Z,19.40
2023-06-26T02:39:38.121Z,19.40
2023-06-26T02:42:05.025Z,19.40
2023-06-26T02:44:31.802Z,19.30
2023-06-26T02:46:58.525Z,19.20
2023-06-26T02:49:25.219Z,19.10
2023-06-26T02:51:51.982Z,19.00
2023-06-26T02:54:18.702Z,19.00
2023-06-26T02:56:47.943Z,19.00
2023-06-26T02:59:15.724Z,18.90
2023-06-26T03:01:42.660Z,18.80
2023-06-26T03:04:09.675Z,18.90
2023-06-26T03:06:36.411Z,18.90
2023-06-26T03:09:03.760Z,18.80
2023-06-26T03:11:30.455Z,18.80
2023-06-26T03:13:57.155Z,18.70
2023-06-26T03:16:23.832Z,18.70
2023-06-26T03:18:50.525Z,18.60
2023-06-26T03:21:17.908Z,18.60
2023-06-26T03:23:44.612Z,18.70
2023-06-26T03:26:11.328Z,18.60
2023-06-26T03:28:38.123Z,18.60
2023-06-26T03:31:04.938Z,18.70
2023-06-26T03:33:31.700Z,18.70
2023-06-26T03:35:58.594Z,18.60
2023-06-26T03:38:26.916Z,18.60
2023-06-26T03:40:53.800Z,18.60
2023-06-26T03:43:20.558Z,18.60
2023-06-26T03:45:47.656Z,18.60
2023-06-26T03:48:14.977Z,18.60
2023-06-26T03:50:41.758Z,18.70
2023-06-26T03:53:08.596Z,18.70
2023-06-26T03:55:35.437Z,18.80
2023-06-26T03:58:02.274Z,18.80
2023-06-26T04:00:29.653Z,18.80
2023-06-26T04:02:56.385Z,18.80
2023-06-26T04:05:23.167Z,18.80
2023-06-26T04:07:53.826Z,18.80
2023-06-26T04:10:22.070Z,18.70
2023-06-26T04:12:49.249Z,18.70
2023-06-26T04:15:16.073Z,18.70
2023-06-26T04:17:42.911Z,18.70
2023-06-26T04:20:10.104Z,18.70
2023-06-26T04:22:36.870Z,18.80
2023-06-26T04:25:04.713Z,18.80
2023-06-26T04:27:31.538Z,18.90
2023-06-26T04:29:58.426Z,19.00
2023-06-26T04:32:25.218Z,19.10
2023-06-26T04:34:51.965Z,19.20
2023-06-26T04:37:18.735Z,19.30
2023-06-26T04:39:45.415Z,19.30
2023-06-26T04:42:14.990Z,19.40
2023-06-26T04:44:42.458Z,19.50
2023-06-26T04:47:09.640Z,19.50
2023-06-26T04:49:39.108Z,19.60
2023-06-26T04:52:06.316Z,19.70
2023-06-26T04:54:33.012Z,19.80
2023-06-26T04:57:00.897Z,19.90
2023-06-26T04:59:27.725Z,20.00
2023-06-26T05:01:56.532Z,20.10
2023-06-26T05:04:23.838Z,20.20
2023-06-26T05:06:50.611Z,20.30
2023-06-26T05:09:17.367Z,20.40
2023-06-26T05:11:44.065Z,20.50
2023-06-26T05:14:10.865Z,20.70
2023-06-26T05:16:37.552Z,20.80
2023-06-26T05:19:04.314Z,20.90
2023-06-26T05:21:31.440Z,21.00
2023-06-26T05:23:59.137Z,21.10
2023-06-26T05:26:27.346Z,21.20
2023-06-26T05:28:54.539Z,21.30
2023-06-26T05:31:21.554Z,21.40
2023-06-26T05:33:49.798Z,21.50
2023-06-26T05:36:17.564Z,21.50
2023-06-26T05:38:44.568Z,21.70
2023-06-26T05:41:11.751Z,21.80
2023-06-26T05:43:38.509Z,21.90
2023-06-26T05:46:05.210Z,22.00
2023-06-26T05:48:32.018Z,22.20
2023-06-26T05:50:59.112Z,22.30
2023-06-26T05:53:26.133Z,22.30
2023-06-26T05:55:53.197Z,22.40
2023-06-26T05:58:22.293Z,22.50
2023-06-26T06:00:48.979Z,22.70
2023-06-26T06:03:15.779Z,22.80
2023-06-26T06:05:42.493Z,23.00
2023-06-26T06:08:09.249Z,23.20
2023-06-26T06:10:36.609Z,23.20
2023-06-26T06:13:03.515Z,23.40
2023-06-26T06:15:31.121Z,23.40
2023-06-26T06:17:58.187Z,23.50
2023-06-26T06:20:25.974Z,23.70
2023-06-26T06:22:52.760Z,23.80
2023-06-26T06:25:19.491Z,24.00
2023-06-26T06:27:46.226Z,24.20
2023-06-26T06:30:13.445Z,24.30
2023-06-26T06:32:40.203Z,24.40
2023-06-26T06:35:10.970Z,24.60
2023-06-26T06:37:39.122Z,24.80
2023-06-26T06:40:10.690Z,24.90
2023-06-26T06:42:37.408Z,25.00
2023-06-26T06:45:04.911Z,25.10
2023-06-26T06:47:32.430Z,25.20
2023-06-26T06:49:59.788Z,25.40
2023-06-26T06:52:26.483Z,25.50
2023-06-26T06:54:54.881Z,25.60
2023-06-26T06:57:22.601Z,25.70
2023-06-26T06:59:49.694Z,25.70
2023-06-26T07:02:18.561Z,25.90
2023-06-26T07:04:45.388Z,26.00
2023-06-26T07:07:14.843Z,26.20
2023-06-26T07:09:41.596Z,26.50
2023-06-26T07:12:08.584Z,26.60
2023-06-26T07:14:35.307Z,26.90
2023-06-26T07:17:02.071Z,27.10
2023-06-26T07:19:28.861Z,27.40
2023-06-26T07:21:55.707Z,27.60
2023-06-26T07:24:22.561Z,27.70
2023-06-26T07:29:16.101Z,27.40
2023-06-26T07:31:43.013Z,27.60
2023-06-26T07:34:09.878Z,27.70
2023-06-26T07:36:36.583Z,27.90
2023-06-26T07:39:03.407Z,27.80
2023-06-26T07:41:32.326Z,27.80
2023-06-26T07:44:00.169Z,27.90
2023-06-26T07:46:26.929Z,27.90
2023-06-26T07:48:54.269Z,28.10
2023-06-26T07:51:21.443Z,28.30
2023-06-26T07:53:48.399Z,28.40
2023-06-26T07:56:18.194Z,28.60
2023-06-26T07:58:45.020Z,28.80
2023-06-26T08:01:12.092Z,29.00
2023-06-26T08:03:39.026Z,29.10
2023-06-26T08:06:06.158Z,29.10
2023-06-26T08:08:32.972Z,29.10
2023-06-26T08:10:59.729Z,29.20
2023-06-26T08:13:26.901Z,29.50
2023-06-26T08:15:53.636Z,29.40
2023-06-26T08:18:20.520Z,29.50
2023-06-26T08:20:47.285Z,29.50
2023-06-26T08:23:13.974Z,29.50
2023-06-26T08:25:40.688Z,29.60
2023-06-26T08:28:07.484Z,29.90
2023-06-26T08:30:34.332Z,30.00
2023-06-26T08:33:01.067Z,30.00
2023-06-26T08:35:27.784Z,30.10
2023-06-26T08:37:55.594Z,30.30
2023-06-26T08:40:22.911Z,30.10
2023-06-26T08:42:53.774Z,30.20
2023-06-26T08:45:21.496Z,30.30
2023-06-26T08:47:52.757Z,30.40
2023-06-26T08:50:23.450Z,30.50
2023-06-26T08:53:02.040Z,30.70
2023-06-26T08:55:30.436Z,30.80
2023-06-26T08:57:57.388Z,31.00
2023-06-26T09:00:24.715Z,31.10
2023-06-26T09:02:53.937Z,31.10
2023-06-26T09:05:20.702Z,31.20
2023-06-26T09:07:47.790Z,31.10
2023-06-26T09:10:14.560Z,31.20
2023-06-26T09:12:41.359Z,31.20
2023-06-26T09:15:08.840Z,31.10
2023-06-26T09:17:43.570Z,31.20
2023-06-26T09:20:11.525Z,31.20
2023-06-26T09:22:39.570Z,31.30
2023-06-26T09:25:07.231Z,31.30
2023-06-26T09:27:35.388Z,31.10
2023-06-26T09:30:07.753Z,30.80
2023-06-26T09:32:38.030Z,30.80
2023-06-26T09:35:05.655Z,30.90
2023-06-26T09:37:32.440Z,31.10
2023-06-26T09:39:59.333Z,31.20
2023-06-26T09:42:26.538Z,31.20
2023-06-26T09:44:53.266Z,31.20
2023-06-26T09:47:21.053Z,31.30
2023-06-26T09:49:49.376Z,31.40
2023-06-26T09:52:17.610Z,31.50
2023-06-26T09:54:46.091Z,31.60
2023-06-26T09:57:16.268Z,31.50
2023-06-26T09:59:46.282Z,31.60
2023-06-26T10:02:13.759Z,31.80
2023-06-26T10:04:40.956Z,32.00
2023-06-26T10:07:12.057Z,32.20
2023-06-26T10:09:43.460Z,32.30
2023-06-26T10:12:43.361Z,32.30
2023-06-26T10:15:13.851Z,32.10
2023-06-26T10:17:43.950Z,32.00
2023-06-26T10:20:11.267Z,32.20
2023-06-26T10:22:45.561Z,32.10
2023-06-26T10:25:17.584Z,32.10
2023-06-26T10:27:48.102Z,31.70
2023-06-26T10:30:22.120Z,31.80
2023-06-26T10:32:49.795Z,31.90
2023-06-26T10:35:17.404Z,32.00
2023-06-26T10:37:47.950Z,32.10
2023-06-26T10:40:22.042Z,32.30
2023-06-26T10:42:48.803Z,32.30
2023-06-26T10:45:16.630Z,32.20
2023-06-26T10:47:46.882Z,32.10
2023-06-26T10:50:27.121Z,32.10
2023-06-26T10:53:19.812Z,32.10
2023-06-26T10:55:58.146Z,32.00
2023-06-26T10:58:40.779Z,32.10
2023-06-26T11:01:16.371Z,32.30
2023-06-26T11:03:45.135Z,32.40
2023-06-26T11:06:19.098Z,32.50
2023-06-26T11:08:56.069Z,32.50
2023-06-26T11:11:55.772Z,32.60
2023-06-26T11:14:24.029Z,32.60
2023-06-26T11:16:51.168Z,32.60
2023-06-26T11:19:19.545Z,32.50
2023-06-26T11:21:46.794Z,32.60
2023-06-26T11:24:14.466Z,32.50
2023-06-26T11:26:46.172Z,32.60
2023-06-26T11:29:13.408Z,32.60
2023-06-26T11:31:42.674Z,32.70
2023-06-26T11:34:13.212Z,32.80
2023-06-26T11:36:43.431Z,32.70
2023-06-26T11:39:10.782Z,32.60
2023-06-26T11:41:39.623Z,32.50
2023-06-26T11:44:11.350Z,32.50
2023-06-26T11:46:39.103Z,32.50
2023-06-26T11:49:09.413Z,32.60
2023-06-26T11:51:39.779Z,32.60
2023-06-26T11:54:06.675Z,32.50
2023-06-26T11:56:34.044Z,32.50
2023-06-26T11:59:03.998Z,32.20
2023-06-26T12:01:34.082Z,32.30
2023-06-26T12:04:04.482Z,32.40
2023-06-26T12:06:34.492Z,32.50
2023-06-26T12:09:05.945Z,32.50
2023-06-26T12:11:34.711Z,32.60
2023-06-26T12:14:02.420Z,32.70
2023-06-26T12:16:31.319Z,32.60
2023-06-26T12:19:03.588Z,32.70
2023-06-26T12:21:39.398Z,32.60
2023-06-26T12:24:07.987Z,32.50
2023-06-26T12:26:36.515Z,32.50
2023-06-26T12:29:09.900Z,32.70
2023-06-26T12:31:40.332Z,32.70
2023-06-26T12:34:18.342Z,32.70
2023-06-26T12:36:48.023Z,32.80
2023-06-26T12:39:20.440Z,32.90
2023-06-26T12:41:48.757Z,32.90
2023-06-26T12:44:41.614Z,32.90
2023-06-26T12:47:09.202Z,32.80
2023-06-26T12:49:37.410Z,32.80
2023-06-26T12:52:08.062Z,32.90
2023-06-26T12:54:36.198Z,32.90
2023-06-26T12:57:05.050Z,33.00
2023-06-26T12:59:32.533Z,32.90
2023-06-26T13:01:59.999Z,32.80
2023-06-26T13:04:27.013Z,32.70
2023-06-26T13:06:56.420Z,32.90
2023-06-26T13:09:27.536Z,32.90
2023-06-26T13:11:54.663Z,33.10
2023-06-26T13:14:21.861Z,33.30
2023-06-26T13:16:48.683Z,33.30
2023-06-26T13:19:16.081Z,33.40
2023-06-26T13:21:43.109Z,33.50
2023-06-26T13:24:10.338Z,33.80
2023-06-26T13:26:38.397Z,34.00
2023-06-26T13:29:05.839Z,34.10
2023-06-26T13:31:33.453Z,33.70
2023-06-26T13:34:00.718Z,33.80
2023-06-26T13:36:27.755Z,34.10
2023-06-26T13:38:57.037Z,34.10
2023-06-26T13:41:24.822Z,34.40
2023-06-26T13:43:51.851Z,36.00
2023-06-26T13:46:19.662Z,38.60
2023-06-26T13:48:47.240Z,39.30
2023-06-26T13:51:14.248Z,40.30
2023-06-26T13:53:41.078Z,42.30
2023-06-26T13:56:08.970Z,43.60
2023-06-26T13:58:37.305Z,44.30
2023-06-26T14:01:05.310Z,42.70
2023-06-26T14:03:32.553Z,40.50
2023-06-26T14:05:59.576Z,39.20
2023-06-26T14:08:26.340Z,38.40
2023-06-26T14:10:53.096Z,37.70
2023-06-26T14:13:23.306Z,36.80
2023-06-26T14:15:53.711Z,36.40
2023-06-26T14:18:22.093Z,36.50
2023-06-26T14:20:49.305Z,36.20
2023-06-26T14:23:16.575Z,36.10
2023-06-26T14:25:43.608Z,35.80
2023-06-26T14:28:10.461Z,35.50
2023-06-26T14:30:37.285Z,35.30
2023-06-26T14:33:04.338Z,35.00
2023-06-26T14:35:31.169Z,34.60
2023-06-26T14:37:57.885Z,34.50
2023-06-26T14:40:24.937Z,34.40
2023-06-26T14:42:52.043Z,34.40
2023-06-26T14:45:19.243Z,34.40
2023-06-26T14:47:46.618Z,34.40
2023-06-26T14:50:13.437Z,34.20
2023-06-26T14:52:40.362Z,34.10
2023-06-26T14:55:08.111Z,34.00
2023-06-26T14:57:35.676Z,34.00
2023-06-26T15:00:02.649Z,33.90
2023-06-26T15:02:29.480Z,33.70
2023-06-26T15:04:56.260Z,33.60
2023-06-26T15:07:23.126Z,33.30
2023-06-26T15:09:49.936Z,33.20
2023-06-26T15:12:16.721Z,33.20
2023-06-26T15:14:43.489Z,33.10
2023-06-26T15:17:10.400Z,33.20
2023-06-26T15:19:40.052Z,33.10
2023-06-26T15:22:07.053Z,32.90
2023-06-26T15:24:33.838Z,32.80
2023-06-26T15:27:00.597Z,32.40
2023-06-26T15:29:27.395Z,32.20
2023-06-26T15:31:57.655Z,32.30
2023-06-26T15:34:24.530Z,32.20
2023-06-26T15:36:51.248Z,32.10
2023-06-26T15:39:18.404Z,32.10
2023-06-26T15:41:46.462Z,31.90
2023-06-26T15:44:13.228Z,31.90
2023-06-26T15:46:39.960Z,31.90
2023-06-26T15:49:06.975Z,31.80
2023-06-26T15:51:38.241Z,31.80
2023-06-26T15:54:05.870Z,31.90
2023-06-26T15:56:32.894Z,31.90
2023-06-26T15:58:59.678Z,31.90
2023-06-26T16:01:27.256Z,32.00
2023-06-26T16:03:54.156Z,32.00
2023-06-26T16:06:21.049Z,32.00
2023-06-26T16:08:50.261Z,31.90
2023-06-26T16:11:17.231Z,32.00
2023-06-26T16:13:45.359Z,31.80
2023-06-26T16:16:12.843Z,31.60
2023-06-26T16:18:40.727Z,31.60
2023-06-26T16:21:08.051Z,31.40
2023-06-26T16:23:35.317Z,31.10
2023-06-26T16:26:02.295Z,31.00
2023-06-26T16:28:29.149Z,30.90
2023-06-26T16:30:55.914Z,30.80
2023-06-26T16:33:22.751Z,30.80
2023-06-26T16:35:49.671Z,30.60
2023-06-26T16:38:16.703Z,30.40
2023-06-26T16:40:43.639Z,30.50
2023-06-26T16:43:10.860Z,30.60
2023-06-26T16:45:37.826Z,30.60
2023-06-26T16:48:05.303Z,30.60
2023-06-26T16:50:32.108Z,30.30
2023-06-26T16:52:58.837Z,30.20
2023-06-26T16:55:25.547Z,30.20
2023-06-26T16:57:52.304Z,30.10
2023-06-26T17:00:19.419Z,29.90
2023-06-26T17:02:46.937Z,29.70
2023-06-26T17:05:14.129Z,29.50
2023-06-26T17:07:40.942Z,29.40
2023-06-26T17:10:08.300Z,29.20
2023-06-26T17:12:38.102Z,29.10
2023-06-26T17:15:05.361Z,29.00
2023-06-26T17:17:32.303Z,28.90
2023-06-26T17:19:59.057Z,28.80
2023-06-26T17:22:26.012Z,28.70
2023-06-26T17:24:54.230Z,28.70
2023-06-26T17:27:25.856Z,28.60
2023-06-26T17:29:52.578Z,28.50
2023-06-26T17:32:22.050Z,28.50
2023-06-26T17:34:52.678Z,28.50
2023-06-26T17:37:24.337Z,28.30
2023-06-26T17:39:55.609Z,28.30
2023-06-26T17:42:22.762Z,28.20
2023-06-26T17:44:50.011Z,28.20
2023-06-26T17:47:17.886Z,28.10
2023-06-26T17:49:44.594Z,28.10
2023-06-26T17:52:11.431Z,28.10
2023-06-26T17:54:38.415Z,28.00
2023-06-26T17:57:05.502Z,27.90
2023-06-26T17:59:32.353Z,27.90
2023-06-26T18:02:01.340Z,27.80
2023-06-26T18:04:28.412Z,27.70
2023-06-26T18:06:55.233Z,27.70
2023-06-26T18:09:22.050Z,27.60
2023-06-26T18:11:48.771Z,27.50
2023-06-26T18:14:15.959Z,27.50
2023-06-26T18:16:42.770Z,27.40
2023-06-26T18:19:09.540Z,27.40
2023-06-26T18:21:36.368Z,27.30
2023-06-26T18:24:03.133Z,27.30
2023-06-26T18:26:29.827Z,27.20
2023-06-26T18:28:57.180Z,27.10
2023-06-26T18:31:24.031Z,27.00
2023-06-26T18:33:50.944Z,26.90
2023-06-26T18:36:17.805Z,26.80
2023-06-26T18:38:44.976Z,26.70
2023-06-26T18:41:12.032Z,26.70
2023-06-26T18:43:41.284Z,26.60
2023-06-26T18:46:08.177Z,26.50
2023-06-26T18:48:34.896Z,26.50
2023-06-26T18:51:01.595Z,26.40
2023-06-26T18:53:29.809Z,26.40
2023-06-26T18:55:56.657Z,26.30
2023-06-26T18:58:24.012Z,26.30
2023-06-26T19:00:50.808Z,26.30
2023-06-26T19:03:17.531Z,26.20
2023-06-26T19:05:44.410Z,26.20
2023-06-26T19:08:11.376Z,26.10
2023-06-26T19:10:38.821Z,26.10
2023-06-26T19:13:07.207Z,26.00
2023-06-26T19:15:34.126Z,25.90
2023-06-26T19:18:01.196Z,25.90
2023-06-26T19:20:28.009Z,25.90
2023-06-26T19:23:02.068Z,25.80
2023-06-26T19:25:28.772Z,25.70
2023-06-26T19:27:55.490Z,25.60
2023-06-26T19:30:22.243Z,25.50
2023-06-26T19:32:49.020Z,25.50
2023-06-26T19:35:15.947Z,25.50
2023-06-26T19:37:56.902Z,25.40
2023-06-26T19:40:34.678Z,25.30
2023-06-26T19:43:02.369Z,25.30
2023-06-26T19:45:29.081Z,25.30
2023-06-26T19:47:55.885Z,25.20
2023-06-26T19:50:22.747Z,25.20
2023-06-26T19:52:50.136Z,25.10
2023-06-26T19:55:17.498Z,25.10
2023-06-26T19:57:44.912Z,25.00
2023-06-26T20:00:12.757Z,25.00
2023-06-26T20:02:39.844Z,25.00
2023-06-26T20:05:08.480Z,24.90
2023-06-26T20:07:36.481Z,24.90
2023-06-26T20:10:03.907Z,24.80
2023-06-26T20:12:30.622Z,24.80
2023-06-26T20:14:57.406Z,24.70
2023-06-26T20:17:25.013Z,24.60
2023-06-26T20:19:51.759Z,24.60
2023-06-26T20:22:18.682Z,24.60
2023-06-26T20:24:45.432Z,24.60
2023-06-26T20:27:12.221Z,24.50
2023-06-26T20:29:38.938Z,24.40
2023-06-26T20:32:06.240Z,24.40
2023-06-26T20:34:32.973Z,24.40
2023-06-26T20:36:59.889Z,24.40
2023-06-26T20:39:28.608Z,24.40
2023-06-26T20:41:56.375Z,24.40
2023-06-26T20:44:23.606Z,24.30
2023-06-26T20:47:09.624Z,24.30
2023-06-26T20:49:40.330Z,24.30
2023-06-26T20:52:11.867Z,24.20
2023-06-26T20:54:40.115Z,24.20
2023-06-26T20:57:10.219Z,24.20
2023-06-26T20:59:41.057Z,24.10
2023-06-26T21:02:07.934Z,24.10
2023-06-26T21:04:37.963Z,24.00
2023-06-26T21:07:07.194Z,24.00
2023-06-26T21:09:34.123Z,24.00
2023-06-26T21:12:04.470Z,24.00
2023-06-26T21:14:31.725Z,24.00
2023-06-26T21:16:58.611Z,24.00
2023-06-26T21:19:25.364Z,24.00
2023-06-26T21:21:52.068Z,23.90
2023-06-26T21:24:19.014Z,23.80
2023-06-26T21:26:45.779Z,23.80
2023-06-26T21:29:12.454Z,23.80
2023-06-26T21:31:39.169Z,23.70
2023-06-26T21:34:06.261Z,23.70
2023-06-26T21:36:32.997Z,23.70
2023-06-26T21:38:59.727Z,23.60
2023-06-26T21:41:26.679Z,23.60
2023-06-26T21:43:53.395Z,23.50
2023-06-26T21:46:20.109Z,23.50
2023-06-26T21:48:46.912Z,23.40
2023-06-26T21:51:13.631Z,23.40
2023-06-26T21:53:40.681Z,23.40
2023-06-26T21:56:07.573Z,23.30
2023-06-26T21:58:34.342Z,23.30
2023-06-26T22:01:01.589Z,23.20
2023-06-26T22:03:28.323Z,23.10
2023-06-26T22:05:55.184Z,23.10
2023-06-26T22:08:21.975Z,23.00
2023-06-26T22:10:48.877Z,23.00
2023-06-26T22:13:15.660Z,23.00
2023-06-26T22:15:42.814Z,23.00
2023-06-26T22:18:09.751Z,23.00
2023-06-26T22:20:36.530Z,23.00
2023-06-26T22:23:03.443Z,22.90
2023-06-26T22:25:30.325Z,22.90
2023-06-26T22:27:57.025Z,22.90
2023-06-26T22:30:25.662Z,22.80
2023-06-26T22:32:52.594Z,22.90
2023-06-26T22:35:19.685Z,22.80
2023-06-26T22:37:46.733Z,22.80
2023-06-26T22:40:16.321Z,22.80
2023-06-26T22:42:43.228Z,22.70
2023-06-26T22:45:11.681Z,22.70
2023-06-26T22:47:39.777Z,22.70
2023-06-26T22:50:08.212Z,22.60
2023-06-26T22:52:35.101Z,22.60
2023-06-26T22:55:03.488Z,22.50
2023-06-26T22:57:30.367Z,22.60
2023-06-26T22:59:57.223Z,22.40
2023-06-26T23:02:24.197Z,22.40
2023-06-26T23:04:51.162Z,22.40
2023-06-26T23:07:21.231Z,22.40
2023-06-26T23:09:48.990Z,22.40
2023-06-26T23:12:15.747Z,22.30
2023-06-26T23:14:42.818Z,22.30
2023-06-26T23:17:09.632Z,22.30
2023-06-26T23:19:39.228Z,22.30
2023-06-26T23:22:10.508Z,22.30
2023-06-26T23:24:38.624Z,22.30
2023-06-26T23:27:09.175Z,22.30
2023-06-26T23:29:37.652Z,22.20
2023-06-26T23:32:06.357Z,22.20
2023-06-26T23:34:39.851Z,22.20
2023-06-26T23:37:13.710Z,22.10
2023-06-26T23:39:43.089Z,22.10
2023-06-26T23:42:10.670Z,22.10
2023-06-26T23:44:37.629Z,22.10
2023-06-26T23:47:05.874Z,22.10
2023-06-26T23:49:34.288Z,22.10
2023-06-26T23:52:01.654Z,22.00
2023-06-26T23:54:29.025Z,22.00
2023-06-26T23:56:55.951Z,21.90
2023-06-26T23:59:22.798Z,21.90
